Latest Weather Observations for Cooma Airport

IDN60801

Issued at 7:33 am EST Saturday 1 October 2016 (issued every 30 minutes, with the page automatically refreshed every 10 minutes)

About weather observations | Map of weather stations | Latest weather observations for NSW | Other Formats
Station Details ID: 070217 Name: COOMA AIRPORT AWS Lat: -36.29 Lon: 148.97 Height: 930.0 m
Data from the previous 72 hours. | See also: Recent months at Cooma Airport
Date/Time
EST
Temp
°C
App
Temp
°C
Dew
Point
°C
Rel
Hum
%
Delta-T
°C
Wind Press
QNH
hPa
Press
MSL
hPa
Rain since
9am
mm
Dir  Spd
km/h
Gust
km/h
Spd
kts
Gust
kts
01/07:30am 8.6 3.4 2.4 65 2.8 WNW 19 30 10 16 1002.1 1001.7 0.0
01/07:00am 7.9 3.0 2.0 66 2.6 NW 17 26 9 14 1001.7 1001.3 0.0
01/06:30am 6.5 3.4 1.4 70 2.2 WNW 7 13 4 7 1001.6 1001.2 0.0
01/06:00am 5.4 1.4 0.8 72 1.9 NW 11 19 6 10 1001.2 1000.8 0.0
01/05:30am 5.4 1.1 0.8 72 1.9 NW 13 22 7 12 1000.7 1000.3 0.0
01/05:00am 5.0 1.0 0.6 73 1.8 NW 11 22 6 12 1000.5 1000.1 0.0
01/04:30am 4.5 1.3 1.0 78 1.4 ESE 7 13 4 7 1000.0 999.6 0.0
01/04:00am 4.9 1.3 0.7 74 1.7 W 9 15 5 8 999.7 999.3 0.0
01/03:30am 4.0 0.4 0.5 78 1.4 NNW 9 24 5 13 999.3 998.8 0.0
01/03:00am 3.5 1.1 -0.1 77 1.4 NNE 2 9 1 5 998.8 998.4 0.0
01/02:30am 5.3 1.8 1.2 75 1.7 NW 9 15 5 8 999.3 998.8 0.0
01/02:00am 3.5 0.4 1.5 87 0.8 NNW 7 19 4 10 998.9 998.5 0.0
01/01:30am -0.1 -2.8 -2.6 83 0.9 WSW 2 6 1 3 998.8 998.4 0.0
01/01:00am 1.8 -0.2 -0.4 85 0.9 CALM 0 0 0 0 998.8 998.4 0.0
01/12:30am 3.3 0.0 -0.2 78 1.4 NW 7 11 4 6 998.7 998.3 0.0
01/12:00am 4.5 0.9 0.5 75 1.6 NNW 9 15 5 8 998.7 998.3 0.0
 
Date/Time
EST
Temp
°C
App
Temp
°C
Dew
Point
°C
Rel
Hum
%
Delta-T
°C
Wind Press
QNH
hPa
Press
MSL
hPa
Rain since
9am
mm
Dir  Spd
km/h
Gust
km/h
Spd
kts
Gust
kts
30/11:30pm 4.4 0.4 0.7 77 1.5 NW 11 19 6 10 998.5 998.0 0.0
30/11:00pm 4.4 0.4 0.6 76 1.6 NW 11 17 6 9 998.7 998.3 0.0
30/10:30pm 5.3 0.6 1.1 74 1.8 NW 15 19 8 10 999.0 998.6 0.0
30/10:00pm 5.7 1.9 1.6 75 1.8 NNW 11 19 6 10 998.9 998.5 0.0
30/09:30pm 4.8 1.3 1.5 79 1.4 NNE 9 15 5 8 998.9 998.5 0.0
30/09:00pm 6.2 2.7 1.3 71 2.1 WNW 9 15 5 8 998.6 998.2 0.0
30/08:30pm 5.8 2.3 1.3 73 1.9 NW 9 13 5 7 998.5 998.0 0.0
30/08:00pm 6.1 0.7 1.2 71 2.1 WNW 19 28 10 15 998.0 997.6 0.0
30/07:30pm 5.8 2.7 1.3 73 1.9 WNW 7 15 4 8 997.5 997.0 0.0
30/07:00pm 6.1 1.1 1.4 72 2.0 WNW 17 24 9 13 997.2 996.7 0.0
30/06:30pm 6.1 0.2 1.6 73 1.9 WNW 22 33 12 18 996.5 996.0 0.0
30/06:00pm 6.4 1.5 1.9 73 2.0 W 17 24 9 13 996.0 995.5 0.0
30/05:30pm 7.4 1.5 1.5 66 2.5 WNW 22 30 12 16 995.7 995.3 0.0
30/05:00pm 7.9 1.4 2.4 68 2.5 WNW 26 37 14 20 994.9 994.4 0.0
30/04:30pm 8.8 1.5 2.2 63 2.9 WNW 30 43 16 23 994.8 994.2 0.0
30/04:00pm 9.6 4.0 3.4 65 2.9 NW 22 39 12 21 994.3 993.8 0.0
30/03:30pm 9.3 3.1 1.9 60 3.3 NW 24 37 13 20 993.7 993.1 0.0
30/03:00pm 9.3 3.2 0.7 55 3.7 WNW 22 37 12 20 993.4 992.9 0.0
30/02:30pm 10.2 3.1 1.6 55 3.8 WNW 28 43 15 23 993.1 992.6 0.0
30/02:00pm 9.5 3.9 1.4 57 3.6 NW 20 30 11 16 993.1 992.6 0.0
30/01:30pm 10.1 4.1 3.2 62 3.2 NW 24 39 13 21 993.1 992.6 0.0
30/01:00pm 10.1 1.4 2.0 57 3.7 NW 37 56 20 30 992.8 992.2 0.0
30/12:58pm 10.3 1.6 2.2 57 3.6 NW 37 56 20 30 992.7 992.1 0.0
30/12:30pm 9.4 2.0 2.0 60 3.3 NW 30 46 16 25 992.7 992.1 0.0
30/12:04pm 10.1 2.5 4.0 66 2.8 NW 33 52 18 28 992.6 992.0 0.0
30/12:00pm 8.8 0.4 1.5 60 3.2 NW 35 50 19 27 992.7 992.1 0.0
30/11:37am 9.2 1.3 2.1 61 3.2 NW 33 54 18 29 992.7 992.1 0.0
30/11:30am 9.2 1.4 1.9 60 3.2 NW 32 48 17 26 992.6 992.0 0.0
30/11:22am 8.9 1.5 2.0 62 3.0 NW 30 43 16 23 992.6 992.0 0.0
30/11:04am 9.2 3.4 2.3 62 3.1 NW 22 33 12 18 992.6 992.0 0.0
30/11:00am 8.9 3.1 2.5 64 2.9 NW 22 32 12 17 992.7 992.1 0.0
30/10:35am 8.3 -0.4 1.7 63 2.9 NNW 37 56 20 30 992.7 992.1 0.0
30/10:30am 8.3 -0.1 1.5 62 3.0 NNW 35 50 19 27 992.7 992.1 0.0
30/10:08am 9.8 2.0 2.6 61 3.2 NNW 33 54 18 29 992.6 992.0 0.0
30/10:00am 8.7 0.4 2.1 63 3.0 NNW 35 46 19 25 992.5 991.9 0.0
30/09:32am 9.1 2.1 2.0 61 3.1 NNW 28 48 15 26 992.1 991.6 0.0
30/09:30am 9.5 3.1 3.3 65 2.8 NNW 26 39 14 21 992.2 991.7 0.0
30/09:00am 8.8 1.9 2.4 64 2.9 N 28 37 15 20 992.1 991.6 3.0
30/08:30am 7.9 1.7 2.2 67 2.5 N 24 35 13 19 992.5 991.9 -
30/08:00am 7.0 1.6 2.3 72 2.1 NNW 20 30 11 16 992.5 991.9 -
30/07:30am 6.5 -0.4 2.8 77 1.6 N 28 41 15 22 992.0 991.5 -
30/07:00am 4.6 -1.7 1.5 80 1.3 N 24 33 13 18 991.7 991.1 -
30/06:30am 4.1 -3.1 1.0 80 1.3 N 28 37 15 20 991.8 991.2 -
30/06:00am 3.5 -4.4 0.9 83 1.1 N 32 44 17 24 991.6 991.0 -
30/05:30am 3.4 -3.7 1.1 85 0.9 N 28 39 15 21 991.5 990.9 -
30/05:00am 3.2 -2.4 1.4 88 0.8 NNE 20 30 11 16 991.9 991.3 -
30/04:30am 3.6 -4.3 1.0 83 1.1 N 32 50 17 27 991.7 991.1 -
30/04:00am 3.6 -4.5 1.0 83 1.1 N 33 41 18 22 991.7 991.1 -
30/03:30am 4.0 -4.5 0.9 80 1.3 N 35 46 19 25 991.8 991.2 -
30/03:00am 4.1 -3.4 1.0 80 1.3 N 30 41 16 22 991.9 991.3 -
30/02:30am 4.4 -2.3 1.3 80 1.3 N 26 35 14 19 992.1 991.6 -
30/02:00am 4.1 -1.5 1.3 82 1.2 N 20 30 11 16 992.7 992.1 -
30/01:30am 4.4 -1.5 1.4 81 1.3 NNE 22 33 12 18 993.0 992.5 -
30/01:00am 4.3 -1.6 2.0 85 1.0 N 22 30 12 16 993.6 993.0 -
30/12:30am 2.9 -2.1 1.6 91 0.5 N 17 20 9 11 994.1 993.6 -
30/12:00am 3.6 -1.3 2.0 89 0.7 NNE 17 20 9 11 994.4 993.9 2.6
 
Date/Time
EST
Temp
°C
App
Temp
°C
Dew
Point
°C
Rel
Hum
%
Delta-T
°C
Wind Press
QNH
hPa
Press
MSL
hPa
Rain since
9am
mm
Dir  Spd
km/h
Gust
km/h
Spd
kts
Gust
kts
29/11:30pm 4.0 -0.6 1.4 83 1.1 N 15 24 8 13 995.0 994.5 2.6
29/11:00pm 4.1 -1.9 1.1 81 1.3 N 22 35 12 19 995.2 994.7 2.6
29/10:30pm 4.0 -0.3 0.7 79 1.3 N 13 19 7 10 995.5 995.0 2.6
29/10:00pm 4.5 -0.2 1.0 78 1.5 N 15 20 8 11 995.4 994.9 2.6
29/09:30pm 4.5 -0.6 1.0 78 1.4 NNE 17 26 9 14 995.4 994.9 2.6
29/09:00pm 4.7 0.4 0.7 75 1.7 NNE 13 24 7 13 995.0 994.5 2.6
29/08:30pm 4.2 -1.9 0.7 78 1.4 NNW 22 39 12 21 994.4 993.9 2.6
29/08:00pm 5.2 -4.1 0.4 71 2.0 NW 39 61 21 33 994.4 993.9 2.6
29/07:50pm 5.7 -2.2 1.1 72 1.9 NW 32 50 17 27 994.9 994.4 2.6
29/07:30pm 6.0 -0.1 0.1 66 2.4 NNW 22 32 12 17 994.3 993.8 2.6
29/07:00pm 5.4 0.1 -0.6 65 2.4 N 17 20 9 11 994.1 993.6 2.6
29/06:30pm 5.7 1.2 -0.1 66 2.4 NNW 13 19 7 10 994.1 993.6 2.6
29/06:00pm 6.4 0.5 -0.6 61 2.9 NNW 20 28 11 15 994.2 993.7 2.6
29/05:30pm 7.6 2.1 0.6 61 3.0 NW 19 37 10 20 994.3 993.8 2.6
29/05:00pm 7.7 0.5 0.7 61 3.0 NW 28 43 15 23 993.9 993.4 2.6
29/04:30pm 8.1 0.2 1.0 61 3.0 NW 32 46 17 25 993.8 993.2 2.6
29/04:08pm 8.6 0.9 0.1 55 3.6 NW 30 48 16 26 993.6 993.0 2.6
29/04:00pm 8.8 1.1 0.0 54 3.7 NW 30 41 16 22 993.4 992.9 2.6
29/03:34pm 8.7 0.5 0.2 55 3.6 NW 33 52 18 28 993.2 992.7 2.6
29/03:30pm 8.7 0.6 -0.6 52 3.9 NW 32 46 17 25 993.2 992.7 2.6
29/03:00pm 9.5 2.6 2.8 63 3.1 NW 28 46 15 25 993.2 992.7 2.6
29/02:30pm 10.2 3.3 2.8 60 3.4 WNW 28 44 15 24 993.1 992.6 2.6
29/02:00pm 11.1 4.1 2.2 54 4.1 NW 28 46 15 25 992.1 991.6 2.6
29/01:30pm 9.8 0.1 2.9 62 3.1 NNW 43 61 23 33 992.0 991.5 2.6
29/01:00pm 10.2 2.0 2.8 60 3.4 NNW 35 54 19 29 992.2 991.7 2.6
29/12:52pm 10.7 3.2 3.3 60 3.4 N 32 54 17 29 992.1 991.6 2.6
29/12:30pm 10.7 5.7 4.6 66 2.9 NNW 20 32 11 17 993.0 992.5 2.6
29/12:00pm 8.9 5.5 5.8 81 1.5 N 13 20 7 11 993.4 992.9 2.6
29/11:30am 8.7 2.5 6.0 83 1.3 NW 28 50 15 27 994.5 994.0 2.6
29/11:22am 9.3 2.8 6.6 83 1.3 NNW 30 50 16 27 994.2 993.7 2.4
29/11:00am 9.8 4.8 9.5 98 0.2 NNE 26 33 14 18 993.3 992.8 2.4
29/10:45am 9.9 3.6 9.6 98 0.2 NNE 33 41 18 22 993.3 992.8 2.4
29/10:40am 9.7 3.6 9.6 99 0.1 NNE 32 39 17 21 993.4 992.9 2.4
29/10:30am 8.9 2.6 8.8 99 0.1 NNE 32 43 17 23 993.8 993.2 2.4
29/10:06am 8.8 0.3 8.7 99 0.1 NNE 43 52 23 28 994.1 993.6 1.4
29/10:00am 8.7 0.6 8.6 99 0.1 NNE 41 52 22 28 994.0 993.5 1.4
29/09:46am 8.4 1.0 8.3 99 0.1 NNE 37 57 20 31 993.9 993.4 1.2
29/09:34am 8.2 1.5 8.1 99 0.1 NNE 33 43 18 23 994.1 993.6 1.0
29/09:30am 8.0 1.4 7.9 99 0.1 NNE 32 43 17 23 994.2 993.7 1.0
29/09:22am 8.0 1.8 7.9 99 0.1 NNE 30 48 16 26 994.3 993.8 0.8
29/09:21am 8.0 1.8 7.9 99 0.1 NNE 30 48 16 26 994.4 993.9 0.8
29/09:00am 7.6 1.0 7.6 100 0.0 NNE 32 39 17 21 994.9 994.4 1.8
29/08:30am 7.2 -0.1 7.1 99 0.0 NE 35 41 19 22 995.1 994.6 1.8
29/08:00am 6.8 0.0 6.7 99 0.0 NNE 32 41 17 22 995.6 995.1 1.4
29/07:30am 6.5 -0.4 6.4 99 0.0 NNE 32 41 17 22 996.2 995.7 1.2
29/07:14am 6.6 -1.6 6.5 99 0.0 NE 39 46 21 25 996.4 995.9 1.0
29/07:00am 6.7 -1.1 6.6 99 0.0 NE 37 46 20 25 996.7 996.3 0.8
29/06:30am 6.7 -0.4 6.6 99 0.0 NE 33 41 18 22 997.9 997.5 0.4
29/06:00am 6.8 -1.6 5.4 91 0.7 NNE 39 50 21 27 998.4 997.9 0.0
29/05:30am 7.2 -0.1 4.3 82 1.3 NNE 32 43 17 23 998.7 998.3 0.0
29/05:00am 6.9 -0.1 4.2 83 1.2 NNE 30 39 16 21 998.9 998.5 0.0
29/04:30am 7.3 0.0 4.3 81 1.4 NNE 32 41 17 22 999.3 998.8 0.0
29/04:00am 6.7 0.2 4.5 86 1.0 NE 28 35 15 19 999.5 999.1 0.0
29/03:30am 6.8 -0.1 4.6 86 1.0 NNE 30 35 16 19 1000.5 1000.1 0.0
29/03:00am 6.9 0.1 5.1 88 0.8 NE 30 41 16 22 1001.1 1000.7 0.0
29/02:30am 6.8 -0.5 5.3 90 0.7 NE 33 41 18 22 1001.8 1001.4 0.0
29/02:00am 6.3 0.7 5.3 93 0.5 NE 24 30 13 16 1002.5 1002.2 0.0
29/01:30am 6.8 0.4 5.0 88 0.8 NNE 28 35 15 19 1003.4 1003.1 0.0
29/01:00am 6.1 0.0 4.6 90 0.7 NE 26 35 14 19 1003.3 1003.0 0.0
29/12:30am 6.9 0.4 4.9 87 0.9 NE 28 33 15 18 1004.3 1004.0 0.0
29/12:00am 7.1 1.8 4.9 86 1.0 NE 22 32 12 17 1004.9 1004.6 0.0
 
Date/Time
EST
Temp
°C
App
Temp
°C
Dew
Point
°C
Rel
Hum
%
Delta-T
°C
Wind Press
QNH
hPa
Press
MSL
hPa
Rain since
9am
mm
Dir  Spd
km/h
Gust
km/h
Spd
kts
Gust
kts
28/11:30pm 7.2 1.1 5.0 86 1.0 NE 26 33 14 18 1005.2 1004.9 0.0
28/11:00pm 8.2 0.8 4.8 79 1.6 NNE 33 43 18 23 1005.7 1005.4 0.0
28/10:30pm 7.3 1.3 5.4 88 0.9 NNE 26 30 14 16 1006.4 1006.1 0.0
28/10:00pm 6.9 2.0 5.1 88 0.8 NNE 20 26 11 14 1006.8 1006.5 0.0
28/09:30pm 7.4 1.4 5.2 86 1.0 NE 26 33 14 18 1006.8 1006.5 0.0
28/09:00pm 7.4 1.8 5.4 87 0.9 NE 24 30 13 16 1007.1 1006.9 0.0
28/08:30pm 7.0 1.4 5.2 88 0.8 NE 24 30 13 16 1007.2 1007.0 0.0
28/08:00pm 7.8 1.7 2.5 69 2.4 NE 24 28 13 15 1007.5 1007.2 0.0
28/07:30pm 8.6 3.3 2.0 63 2.9 NNE 19 22 10 12 1008.0 1007.8 0.0
28/07:00pm 9.8 3.9 1.7 57 3.6 NNE 22 28 12 15 1007.7 1007.4 0.0
28/06:30pm 10.8 3.7 1.4 52 4.2 NNE 28 35 15 19 1007.4 1007.1 0.0
28/06:00pm 11.6 3.8 1.8 51 4.4 NNE 32 41 17 22 1007.2 1007.0 0.0
28/05:30pm 12.2 4.4 1.5 48 4.8 NNE 32 43 17 23 1007.1 1006.9 0.0
28/05:00pm 13.5 6.3 0.5 41 5.8 NNE 28 35 15 19 1007.2 1007.0 0.0
28/04:30pm 14.2 7.4 0.8 40 6.0 NNE 26 32 14 17 1007.2 1007.0 0.0
28/04:00pm 15.0 8.2 0.8 38 6.5 NNE 26 35 14 19 1007.5 1007.2 0.0
28/03:30pm 14.9 8.9 -1.2 33 7.0 NNE 20 32 11 17 1007.8 1007.6 0.0
28/03:00pm 14.8 8.6 -3.0 29 7.5 NE 20 28 11 15 1008.4 1008.2 0.0
28/02:30pm 14.9 8.9 -1.6 32 7.1 NE 20 28 11 15 1009.0 1008.8 0.0
28/02:00pm 14.6 8.9 -0.7 35 6.7 ENE 19 28 10 15 1009.8 1009.6 0.0
28/01:30pm 13.9 8.3 0.2 39 6.1 NE 19 26 10 14 1010.4 1010.2 0.0
28/01:00pm 13.2 8.9 0.9 43 5.5 NE 13 19 7 10 1011.2 1011.0 0.0
28/12:30pm 12.9 8.0 -0.4 40 5.8 N 15 30 8 16 1011.6 1011.5 0.0
28/12:00pm 13.1 9.6 3.7 53 4.5 E 11 19 6 10 1012.0 1011.8 0.0
28/11:30am 12.0 8.0 0.5 45 5.0 ENE 11 19 6 10 1012.2 1012.0 0.0
28/11:00am 11.8 8.5 -1.0 41 5.4 SW 6 11 3 6 1012.5 1012.4 0.0
28/10:30am 11.6 9.4 3.1 56 3.9 SW 4 11 2 6 1012.9 1012.8 0.0
28/10:00am 10.5 7.1 -0.3 47 4.6 ESE 7 11 4 6 1013.4 1013.3 0.0
28/09:30am 9.9 6.9 0.5 52 4.0 WSW 6 9 3 5 1013.6 1013.5 0.0
28/09:00am 9.0 5.6 2.1 62 3.1 NE 9 13 5 7 1013.8 1013.7 0.0
28/08:30am 7.6 3.8 1.9 67 2.5 NE 11 13 6 7 1013.9 1013.8 0.0
28/08:00am 6.1 2.4 2.4 77 1.6 NE 11 13 6 7 1014.0 1013.9 0.0

Other Formats:

Comma delimited format used in spreadsheet applications
http://www.bom.gov.au/fwo/IDN60801/IDN60801.94921.axf

JavaScript Object Notation format (JSON) in row-major order
http://www.bom.gov.au/fwo/IDN60801/IDN60801.94921.json